createdAt,value
2023-03-29T00:00:38.298Z,6.8181
2023-03-29T00:02:41.472Z,6.7109
2023-03-29T00:03:43.047Z,6.5602
2023-03-29T00:04:43.004Z,6.4774
2023-03-29T00:05:43.039Z,6.3821
2023-03-29T00:06:43.049Z,6.2575
2023-03-29T00:07:44.268Z,6.1491
2023-03-29T00:08:44.394Z,6.1252
2023-03-29T00:09:45.642Z,6.0608
2023-03-29T00:10:45.732Z,6.0150
2023-03-29T00:11:46.953Z,6.0370
2023-03-29T00:12:48.283Z,5.9940
2023-03-29T00:13:49.526Z,6.1056
2023-03-29T00:14:50.929Z,6.3646
2023-03-29T00:15:52.111Z,6.3286
2023-03-29T00:16:53.690Z,6.3400
2023-03-29T00:17:55.082Z,6.5309
2023-03-29T00:18:55.172Z,6.5041
2023-03-29T00:19:56.427Z,6.5169
2023-03-29T00:20:57.813Z,6.6175
2023-03-29T00:21:59.037Z,6.6726
2023-03-29T00:22:59.476Z,6.6648
2023-03-29T00:24:00.674Z,6.7050
2023-03-29T00:25:00.714Z,6.7278
2023-03-29T00:26:02.031Z,6.8048
2023-03-29T00:27:03.565Z,6.8135
2023-03-29T00:28:04.854Z,6.6930
2023-03-29T00:29:06.219Z,6.5654
2023-03-29T00:30:07.429Z,6.7925
2023-03-29T00:31:08.898Z,6.7266
2023-03-29T00:32:10.207Z,6.8996
2023-03-29T00:33:10.357Z,6.9954
2023-03-29T00:34:11.622Z,7.2401
2023-03-29T00:35:11.631Z,7.4882
2023-03-29T00:36:12.907Z,7.2669
2023-03-29T00:37:12.974Z,7.0905
2023-03-29T00:38:14.181Z,7.1282
2023-03-29T00:39:15.492Z,7.1032
2023-03-29T00:40:16.803Z,7.2573
2023-03-29T00:41:17.186Z,7.0773
2023-03-29T00:42:18.386Z,7.0250
2023-03-29T00:43:18.479Z,7.0942
2023-03-29T00:44:19.791Z,7.4068
2023-03-29T00:45:21.228Z,7.4343
2023-03-29T00:46:22.659Z,7.5460
2023-03-29T00:47:22.957Z,7.4315
2023-03-29T00:48:24.369Z,7.3247
2023-03-29T00:49:24.369Z,7.3313
2023-03-29T00:50:25.571Z,7.3466
2023-03-29T00:51:26.956Z,7.2267
2023-03-29T00:52:28.231Z,7.1741
2023-03-29T00:53:29.679Z,7.0624
2023-03-29T00:54:30.959Z,7.0383
2023-03-29T00:55:32.392Z,7.1883
2023-03-29T00:56:32.488Z,7.1960
2023-03-29T00:57:34.012Z,7.3729
2023-03-29T00:58:35.246Z,7.4507
2023-03-29T00:59:36.724Z,7.5276
2023-03-29T01:00:38.048Z,7.3330
2023-03-29T01:01:38.179Z,7.3043
2023-03-29T01:02:38.456Z,7.4877
2023-03-29T01:03:40.163Z,7.6946
2023-03-29T01:04:41.444Z,7.6938
2023-03-29T01:05:42.750Z,7.7182
2023-03-29T01:06:43.864Z,7.7279
2023-03-29T01:07:44.524Z,7.6893
2023-03-29T01:08:45.745Z,7.5447
2023-03-29T01:09:45.852Z,7.6209
2023-03-29T01:10:47.126Z,7.6381
2023-03-29T01:11:48.483Z,7.6021
2023-03-29T01:12:49.715Z,7.5660
2023-03-29T01:13:51.205Z,7.5191
2023-03-29T01:14:52.484Z,7.4404
2023-03-29T01:15:53.932Z,7.4290
2023-03-29T01:16:55.338Z,7.4386
2023-03-29T01:17:55.683Z,7.3289
2023-03-29T01:18:55.798Z,7.3608
2023-03-29T01:29:06.493Z,7.5978
2023-03-29T01:30:07.869Z,7.5329
2023-03-29T01:31:09.164Z,7.4848
2023-03-29T01:32:09.230Z,7.6187
2023-03-29T01:33:10.549Z,7.6747
2023-03-29T01:34:11.913Z,7.7433
2023-03-29T01:35:11.990Z,7.6954
2023-03-29T01:36:13.538Z,7.5914
2023-03-29T01:37:14.756Z,7.4960
2023-03-29T01:38:16.127Z,7.5356
2023-03-29T01:39:17.396Z,7.4323
2023-03-29T01:40:18.736Z,7.4423
2023-03-29T01:41:20.038Z,7.7099
2023-03-29T01:42:21.529Z,7.7432
2023-03-29T01:43:23.553Z,7.6745
2023-03-29T01:44:23.385Z,7.5269
2023-03-29T01:45:24.715Z,7.5409
2023-03-29T01:46:24.817Z,7.5291
2023-03-29T01:47:24.892Z,7.5344
2023-03-29T01:48:26.106Z,7.5449
2023-03-29T01:49:27.413Z,7.5039
2023-03-29T01:50:28.627Z,7.4889
2023-03-29T01:51:29.950Z,7.3604
2023-03-29T01:52:31.202Z,7.3389
2023-03-29T01:53:31.245Z,7.2843
2023-03-29T01:54:32.612Z,7.2423
2023-03-29T02:04:41.706Z,7.1148
2023-03-29T02:05:41.763Z,7.1940
2023-03-29T02:06:42.986Z,7.2823
2023-03-29T02:07:44.301Z,7.1836
2023-03-29T02:08:45.526Z,7.1868
2023-03-29T02:09:45.589Z,7.2531
2023-03-29T02:10:45.714Z,7.2402
2023-03-29T02:11:47.163Z,7.2054
2023-03-29T02:12:48.534Z,7.1322
2023-03-29T02:13:48.471Z,7.2294
2023-03-29T02:14:48.550Z,7.3264
2023-03-29T02:15:50.041Z,7.2828
2023-03-29T02:16:50.082Z,7.1510
2023-03-29T02:17:51.428Z,7.0423
2023-03-29T02:18:51.702Z,7.0378
2023-03-29T02:19:53.069Z,7.1218
2023-03-29T02:20:53.159Z,7.0846
2023-03-29T02:21:53.144Z,6.9710
2023-03-29T02:22:54.438Z,6.8848
2023-03-29T02:28:59.466Z,7.2418
2023-03-29T02:29:59.500Z,7.0949
2023-03-29T02:31:01.045Z,7.1264
2023-03-29T02:32:01.704Z,7.1396
2023-03-29T02:33:01.777Z,7.2219
2023-03-29T02:34:01.870Z,7.2149
2023-03-29T02:35:01.908Z,7.2468
2023-03-29T02:36:02.023Z,7.2404
2023-03-29T02:37:02.130Z,7.2799
2023-03-29T02:38:03.530Z,7.1682
2023-03-29T02:39:03.684Z,7.1484
2023-03-29T02:40:04.986Z,7.2159
2023-03-29T02:41:06.493Z,7.2308
2023-03-29T02:42:07.785Z,7.3474
2023-03-29T02:44:09.035Z,7.2538
2023-03-29T02:45:10.376Z,7.1043
2023-03-29T02:46:10.472Z,6.9554
2023-03-29T02:47:10.558Z,6.9064
2023-03-29T02:48:10.669Z,6.9330
2023-03-29T02:49:12.038Z,6.9421
2023-03-29T02:50:13.702Z,6.8898
2023-03-29T02:51:15.916Z,6.9632
2023-03-29T02:52:15.922Z,6.9588
2023-03-29T02:53:15.955Z,7.0403
2023-03-29T02:54:17.338Z,7.1929
2023-03-29T02:55:17.423Z,7.4406
2023-03-29T02:56:18.638Z,7.2601
2023-03-29T02:57:20.221Z,7.0088
2023-03-29T02:58:20.236Z,6.9454
2023-03-29T02:59:21.580Z,6.9198
2023-03-29T03:00:21.672Z,6.8221
2023-03-29T03:01:23.092Z,6.9416
2023-03-29T03:02:23.335Z,6.7679
2023-03-29T03:03:23.954Z,6.7039
2023-03-29T03:04:24.308Z,6.8538
2023-03-29T03:05:25.614Z,7.0135
2023-03-29T03:06:25.752Z,7.0243
2023-03-29T03:07:27.024Z,7.1707
2023-03-29T03:09:29.787Z,7.3034
2023-03-29T03:11:31.124Z,7.1633
2023-03-29T03:12:31.477Z,7.1709
2023-03-29T03:13:32.753Z,7.2973
2023-03-29T03:14:33.101Z,7.2560
2023-03-29T03:15:34.401Z,7.2274
2023-03-29T03:16:34.865Z,7.2487
2023-03-29T03:17:34.856Z,7.0815
2023-03-29T03:18:36.149Z,7.0246
2023-03-29T03:19:36.286Z,7.0953
2023-03-29T03:20:37.553Z,7.0635
2023-03-29T03:21:38.538Z,7.1116
2023-03-29T03:22:39.867Z,7.0460
2023-03-29T03:23:39.981Z,6.9904
2023-03-29T03:27:42.479Z,7.0166
2023-03-29T03:28:42.539Z,7.0202
2023-03-29T03:29:43.922Z,7.0619
2023-03-29T03:30:44.086Z,7.2428
2023-03-29T03:31:44.191Z,7.8195
2023-03-29T03:32:44.304Z,7.8916
2023-03-29T03:33:45.638Z,7.6104
2023-03-29T03:34:47.182Z,7.5269
2023-03-29T03:35:48.512Z,7.4653
2023-03-29T03:36:48.633Z,7.4964
2023-03-29T03:37:49.942Z,7.3158
2023-03-29T03:38:51.442Z,7.1210
2023-03-29T03:39:52.731Z,7.1939
2023-03-29T03:41:55.400Z,7.3736
2023-03-29T03:42:55.759Z,7.3133
2023-03-29T03:43:56.277Z,7.1576
2023-03-29T03:44:56.324Z,7.1246
2023-03-29T03:45:56.586Z,7.2120
2023-03-29T03:46:57.090Z,7.1490
2023-03-29T03:47:57.200Z,7.1801
2023-03-29T03:48:57.383Z,6.9460
2023-03-29T03:49:57.417Z,6.8139
2023-03-29T03:50:57.441Z,6.7016
2023-03-29T03:51:58.788Z,6.7151
2023-03-29T03:52:58.928Z,6.6616
2023-03-29T03:54:00.250Z,6.7559
2023-03-29T03:55:01.789Z,6.5961
2023-03-29T03:56:03.148Z,6.4976
2023-03-29T03:57:04.825Z,6.6350
2023-03-29T03:58:06.109Z,6.6961
2023-03-29T03:59:06.341Z,6.6512
2023-03-29T04:00:07.692Z,6.5776
2023-03-29T04:01:07.680Z,6.9805
2023-03-29T04:02:07.824Z,7.2045
2023-03-29T04:03:08.093Z,7.2773
2023-03-29T04:04:09.167Z,7.1960
2023-03-29T04:05:09.459Z,7.0352
2023-03-29T04:06:09.495Z,6.8798
2023-03-29T04:07:10.744Z,7.0715
2023-03-29T04:08:12.158Z,7.3229
2023-03-29T04:09:13.480Z,7.1153
2023-03-29T04:10:13.640Z,6.9792
2023-03-29T04:11:14.909Z,6.8998
2023-03-29T04:12:15.031Z,6.8399
2023-03-29T04:13:16.337Z,7.2973
2023-03-29T04:14:17.840Z,7.5411
2023-03-29T04:15:17.855Z,7.3848
2023-03-29T04:16:18.067Z,7.3097
2023-03-29T04:17:18.189Z,7.2153
2023-03-29T04:18:18.770Z,7.4559
2023-03-29T04:19:20.085Z,7.3633
2023-03-29T04:20:20.389Z,7.3349
2023-03-29T04:21:21.659Z,7.3635
2023-03-29T04:22:21.915Z,7.2972
2023-03-29T04:34:35.111Z,7.5408
2023-03-29T04:35:35.523Z,7.6379
2023-03-29T04:36:36.744Z,7.5721
2023-03-29T04:37:38.372Z,7.4422
2023-03-29T04:38:38.367Z,7.3063
2023-03-29T04:39:38.593Z,7.2903
2023-03-29T04:40:38.681Z,7.4723
2023-03-29T04:41:40.040Z,7.3576
2023-03-29T04:42:40.082Z,7.3379
2023-03-29T04:43:41.452Z,7.4531
2023-03-29T04:44:42.981Z,7.5660
2023-03-29T04:45:43.017Z,7.4649
2023-03-29T04:46:43.247Z,7.6258
2023-03-29T04:47:43.281Z,7.5478
2023-03-29T04:48:43.308Z,7.4280
2023-03-29T04:49:43.433Z,7.2807
2023-03-29T04:50:44.674Z,7.3341
2023-03-29T04:51:44.998Z,7.5221
2023-03-29T04:52:46.546Z,7.8677
2023-03-29T04:53:46.669Z,7.9931
2023-03-29T04:54:47.978Z,8.0515
2023-03-29T04:55:48.089Z,8.2572
2023-03-29T04:56:49.431Z,8.3423
2023-03-29T04:57:49.512Z,8.4213
2023-03-29T04:58:50.772Z,8.3513
2023-03-29T04:59:52.113Z,8.3190
2023-03-29T05:00:52.280Z,8.4343
2023-03-29T05:01:52.348Z,8.3651
2023-03-29T05:02:52.650Z,8.3125
2023-03-29T05:03:52.761Z,8.2657
2023-03-29T05:04:53.157Z,8.3194
2023-03-29T05:05:53.240Z,8.3403
2023-03-29T05:06:53.422Z,8.3904
2023-03-29T05:07:54.833Z,8.4151
2023-03-29T05:08:55.226Z,8.3403
2023-03-29T05:09:55.460Z,8.3986
2023-03-29T05:10:55.773Z,8.5351
2023-03-29T05:11:55.983Z,8.6251
2023-03-29T05:12:56.097Z,8.6325
2023-03-29T05:13:56.218Z,8.6076
2023-03-29T05:14:56.463Z,8.5589
2023-03-29T05:15:57.360Z,8.3907
2023-03-29T05:16:57.594Z,8.1710
2023-03-29T05:17:58.186Z,8.2610
2023-03-29T05:18:58.585Z,8.5575
2023-03-29T05:19:59.171Z,8.5299
2023-03-29T05:20:59.878Z,8.4757
2023-03-29T05:22:00.594Z,8.5394
2023-03-29T05:23:00.642Z,8.5136
2023-03-29T05:24:01.941Z,8.4273
2023-03-29T05:25:02.110Z,8.4132
2023-03-29T05:26:03.451Z,8.3874
2023-03-29T05:27:03.610Z,8.3241
2023-03-29T05:28:03.679Z,8.2769
2023-03-29T05:29:03.640Z,8.2558
2023-03-29T05:30:03.777Z,8.3443
2023-03-29T05:31:04.273Z,8.3308
2023-03-29T05:32:04.853Z,8.3972
2023-03-29T05:33:04.885Z,8.4609
2023-03-29T05:34:06.363Z,8.4421
2023-03-29T05:35:06.472Z,8.5168
2023-03-29T05:36:06.823Z,8.5808
2023-03-29T05:37:07.086Z,8.5428
2023-03-29T05:38:07.248Z,8.1978
2023-03-29T05:39:07.323Z,8.1073
2023-03-29T05:40:08.127Z,8.0658
2023-03-29T05:41:09.284Z,8.2577
2023-03-29T05:42:09.579Z,8.3382
2023-03-29T05:43:09.458Z,8.3642
2023-03-29T05:44:09.624Z,8.3871
2023-03-29T05:46:10.862Z,8.4371
2023-03-29T05:47:11.214Z,8.3112
2023-03-29T05:48:11.290Z,8.2492
2023-03-29T05:49:11.546Z,8.2905
2023-03-29T05:50:11.678Z,8.2181
2023-03-29T05:51:12.552Z,8.2616
2023-03-29T05:52:12.717Z,8.2710
2023-03-29T05:53:12.874Z,8.2753
2023-03-29T05:54:14.248Z,8.2212
2023-03-29T05:55:14.381Z,8.1657
2023-03-29T05:56:14.494Z,8.0770
2023-03-29T05:57:14.706Z,8.0987
2023-03-29T05:58:14.870Z,8.1145
2023-03-29T05:59:15.033Z,8.0694
2023-03-29T06:00:15.058Z,8.1020
2023-03-29T06:01:15.810Z,8.1081
2023-03-29T06:02:15.952Z,8.0889
2023-03-29T06:03:22.553Z,8.0998
2023-03-29T06:04:23.155Z,8.0650
2023-03-29T06:05:23.331Z,8.1119
2023-03-29T06:06:24.783Z,8.1630
2023-03-29T06:07:24.939Z,8.1294
2023-03-29T06:08:25.071Z,8.0863
2023-03-29T06:09:25.355Z,8.1005
2023-03-29T06:16:29.731Z,8.5315
2023-03-29T06:17:30.226Z,8.5013
2023-03-29T06:18:30.814Z,8.4534
2023-03-29T06:19:30.843Z,8.6035
2023-03-29T06:20:30.931Z,8.7177
2023-03-29T06:21:31.127Z,8.8939
2023-03-29T06:22:32.498Z,8.9336
2023-03-29T06:23:32.572Z,9.0233
2023-03-29T06:24:33.023Z,9.0754
2023-03-29T06:25:34.114Z,9.0359
2023-03-29T06:26:34.399Z,9.0296
2023-03-29T06:27:34.497Z,8.9721
2023-03-29T06:28:34.540Z,9.1023
2023-03-29T06:29:34.786Z,9.0155
2023-03-29T06:30:35.747Z,8.9865
2023-03-29T06:31:36.531Z,8.9462
2023-03-29T06:32:36.874Z,9.0096
2023-03-29T06:33:37.047Z,8.9224
2023-03-29T06:34:38.576Z,8.9523
2023-03-29T06:35:37.599Z,9.1806
2023-03-29T06:36:37.692Z,9.0876
2023-03-29T06:37:37.910Z,9.1222
2023-03-29T06:38:37.927Z,9.1752
2023-03-29T06:39:38.173Z,9.2135
2023-03-29T06:40:38.203Z,9.1894
2023-03-29T06:41:38.231Z,9.2198
2023-03-29T06:42:38.379Z,9.2969
2023-03-29T06:43:38.393Z,9.2547
2023-03-29T06:44:38.414Z,9.3102
2023-03-29T06:45:38.668Z,9.3868
2023-03-29T06:46:39.019Z,9.4938
2023-03-29T06:47:39.086Z,9.4292
2023-03-29T06:48:39.362Z,9.4497
2023-03-29T06:49:39.387Z,9.4017
2023-03-29T06:50:39.493Z,9.4327
2023-03-29T06:51:39.532Z,9.4561
2023-03-29T06:52:39.731Z,9.4874
2023-03-29T06:53:41.104Z,9.4307
2023-03-29T06:54:41.260Z,9.2954
2023-03-29T06:55:41.661Z,9.4011
2023-03-29T06:56:43.121Z,9.4298
2023-03-29T06:57:43.635Z,9.4332
2023-03-29T06:58:43.681Z,9.4780
2023-03-29T06:59:43.955Z,9.5717
2023-03-29T07:00:44.403Z,9.5797
2023-03-29T07:01:44.854Z,9.6263
2023-03-29T07:02:44.906Z,9.5868
2023-03-29T07:03:46.732Z,9.5503
2023-03-29T07:04:47.149Z,9.6324
2023-03-29T07:05:47.428Z,9.6871
2023-03-29T07:06:47.476Z,9.6466
2023-03-29T07:07:47.764Z,9.5998
2023-03-29T07:08:47.956Z,9.5568
2023-03-29T07:09:48.006Z,9.5505
2023-03-29T07:10:48.121Z,9.1894
2023-03-29T07:11:48.332Z,8.8269
2023-03-29T07:12:48.516Z,8.5918
2023-03-29T07:13:49.043Z,8.5402
2023-03-29T07:14:49.124Z,8.5077
2023-03-29T07:15:49.242Z,8.3287
2023-03-29T07:16:49.326Z,8.0170
2023-03-29T07:17:49.548Z,7.9684
2023-03-29T07:18:49.565Z,7.8617
2023-03-29T07:19:49.636Z,7.6972
2023-03-29T07:20:49.815Z,7.6937
2023-03-29T07:21:49.852Z,7.8211
2023-03-29T07:22:49.862Z,7.8238
2023-03-29T07:23:50.079Z,7.9902
2023-03-29T07:24:50.085Z,8.1508
2023-03-29T07:25:50.114Z,8.2712
2023-03-29T07:27:03.261Z,8.3844
2023-03-29T07:27:50.684Z,8.4081
2023-03-29T07:28:50.730Z,8.2621
2023-03-29T07:29:50.877Z,8.3257
2023-03-29T07:30:51.569Z,8.4249
2023-03-29T07:31:51.778Z,8.2991
2023-03-29T07:32:52.234Z,8.2512
2023-03-29T07:33:53.332Z,8.4543
2023-03-29T07:34:53.446Z,8.3677
2023-03-29T07:35:53.518Z,8.4106
2023-03-29T07:36:53.781Z,8.5156
2023-03-29T07:37:53.781Z,8.4102
2023-03-29T07:38:56.301Z,8.4606
2023-03-29T07:39:55.289Z,8.4972
2023-03-29T07:40:55.504Z,8.4955
2023-03-29T07:41:55.532Z,8.5143
2023-03-29T07:42:55.561Z,8.4339
2023-03-29T07:43:55.718Z,8.8656
2023-03-29T07:44:55.734Z,9.0032
2023-03-29T07:45:55.989Z,8.8034
2023-03-29T07:46:56.170Z,8.7938
2023-03-29T07:47:56.478Z,8.8333
2023-03-29T07:48:56.658Z,8.9283
2023-03-29T07:49:57.000Z,9.2971
2023-03-29T07:50:57.082Z,9.0807
2023-03-29T07:51:57.848Z,9.0974
2023-03-29T07:52:58.126Z,8.9544
2023-03-29T07:53:58.255Z,8.8884
2023-03-29T07:54:58.495Z,8.8169
2023-03-29T07:55:58.590Z,8.8516
2023-03-29T07:56:58.826Z,9.0673
2023-03-29T07:57:59.167Z,9.0611
2023-03-29T07:58:59.321Z,9.1707
2023-03-29T07:59:59.548Z,9.2303
2023-03-29T08:00:59.772Z,9.4417
2023-03-29T08:02:00.918Z,9.4011
2023-03-29T08:03:01.040Z,9.3208
2023-03-29T08:04:01.414Z,9.1074
2023-03-29T08:05:01.983Z,9.1380
2023-03-29T08:06:02.585Z,9.1335
2023-03-29T08:07:02.730Z,9.1475
2023-03-29T08:08:02.830Z,9.0724
2023-03-29T08:09:03.122Z,9.1369
2023-03-29T08:10:03.314Z,9.2629
2023-03-29T08:11:03.687Z,9.3215
2023-03-29T08:12:04.020Z,9.4133
2023-03-29T08:13:04.089Z,9.5436
2023-03-29T08:14:04.248Z,9.4274
2023-03-29T08:15:04.432Z,9.0724
2023-03-29T08:16:04.842Z,9.0300
2023-03-29T08:17:05.130Z,9.0175
2023-03-29T08:18:05.904Z,9.0803
2023-03-29T08:19:06.711Z,9.1327
2023-03-29T08:20:07.307Z,8.9618
2023-03-29T08:21:07.901Z,8.9556
2023-03-29T08:22:07.924Z,8.9171
2023-03-29T08:23:08.234Z,9.0250
2023-03-29T08:24:08.507Z,9.1993
2023-03-29T08:25:09.779Z,9.3485
2023-03-29T08:26:09.924Z,9.2149
2023-03-29T08:27:10.251Z,9.0396
2023-03-29T08:28:10.387Z,8.9968
2023-03-29T08:29:10.485Z,8.9848
2023-03-29T08:30:10.742Z,8.9665
2023-03-29T08:31:11.417Z,9.0852
2023-03-29T08:32:11.654Z,9.1988
2023-03-29T08:33:12.058Z,9.3219
2023-03-29T08:34:12.501Z,9.4167
2023-03-29T08:35:12.715Z,9.5593
2023-03-29T08:36:13.044Z,9.4319
2023-03-29T08:37:13.140Z,9.4649
2023-03-29T08:38:13.333Z,9.5876
2023-03-29T08:39:13.646Z,9.6475
2023-03-29T08:40:13.712Z,9.6406
2023-03-29T08:41:14.553Z,9.5236
2023-03-29T08:42:14.585Z,9.6541
2023-03-29T08:43:14.662Z,9.8399
2023-03-29T08:44:14.938Z,9.9595
2023-03-29T08:45:15.006Z,10.2230
2023-03-29T08:46:15.317Z,10.1729
2023-03-29T08:47:16.202Z,10.3142
2023-03-29T08:48:16.663Z,10.2932
2023-03-29T08:49:16.830Z,10.1103
2023-03-29T08:50:16.952Z,10.2617
2023-03-29T08:51:18.016Z,10.3019
2023-03-29T08:52:18.174Z,10.1843
2023-03-29T08:53:19.409Z,9.9935
2023-03-29T08:54:19.569Z,10.3053
2023-03-29T08:55:19.904Z,10.4615
2023-03-29T08:56:20.051Z,10.4457
2023-03-29T08:57:20.710Z,10.3822
2023-03-29T08:58:20.860Z,10.5652
2023-03-29T08:59:21.318Z,10.5737
2023-03-29T09:00:21.406Z,10.7461
2023-03-29T09:01:21.521Z,10.8530
2023-03-29T09:02:21.979Z,10.8463
2023-03-29T09:03:22.492Z,10.7965
2023-03-29T09:04:22.781Z,10.9306
2023-03-29T09:05:22.947Z,11.0651
2023-03-29T09:06:23.212Z,11.0069
2023-03-29T09:07:26.463Z,11.1439
2023-03-29T09:08:24.041Z,11.0981
2023-03-29T09:09:25.004Z,11.2979
2023-03-29T09:10:25.210Z,11.1191
2023-03-29T09:11:25.512Z,11.1378
2023-03-29T09:12:25.612Z,11.1716
2023-03-29T09:13:25.935Z,11.0746
2023-03-29T09:14:26.091Z,11.0804
2023-03-29T09:15:26.395Z,11.2580
2023-03-29T09:16:26.486Z,11.1049
2023-03-29T09:17:27.128Z,10.9117
2023-03-29T09:18:27.464Z,10.8271
2023-03-29T09:19:27.659Z,10.8485
2023-03-29T09:20:28.010Z,10.6021
2023-03-29T09:21:28.217Z,10.3185
2023-03-29T09:22:28.297Z,10.4371
2023-03-29T09:23:28.542Z,10.6144
2023-03-29T09:24:28.881Z,10.6960
2023-03-29T09:25:29.094Z,10.5603
2023-03-29T09:26:29.490Z,10.4442
2023-03-29T09:27:29.750Z,10.5783
2023-03-29T09:28:29.907Z,10.8508
2023-03-29T09:29:31.238Z,10.8080
2023-03-29T09:30:31.372Z,10.7711
2023-03-29T09:31:31.817Z,10.8279
2023-03-29T09:32:31.961Z,10.8522
2023-03-29T09:33:32.216Z,10.9475
2023-03-29T09:34:32.324Z,10.6309
2023-03-29T09:35:32.463Z,10.5026
2023-03-29T09:36:32.758Z,10.3724
2023-03-29T09:37:32.869Z,10.3508
2023-03-29T09:38:33.221Z,10.2640
2023-03-29T09:39:33.237Z,10.3632
2023-03-29T09:40:33.359Z,10.3951
2023-03-29T09:41:33.603Z,10.5073
2023-03-29T09:42:33.717Z,10.5423
2023-03-29T09:43:33.768Z,10.5512
2023-03-29T09:44:33.976Z,10.5678
2023-03-29T09:45:34.121Z,10.5957
2023-03-29T09:46:34.520Z,10.5921
2023-03-29T09:47:34.658Z,10.5891
2023-03-29T09:48:35.251Z,10.7895
2023-03-29T09:49:35.356Z,10.9627
2023-03-29T09:50:35.918Z,10.9314
2023-03-29T09:51:36.007Z,10.9555
2023-03-29T09:52:36.315Z,10.9724
2023-03-29T09:53:36.485Z,11.0076
2023-03-29T09:54:36.809Z,10.9286
2023-03-29T09:55:37.073Z,11.1151
2023-03-29T09:56:37.338Z,11.0882
2023-03-29T09:57:37.525Z,10.8991
2023-03-29T09:58:37.894Z,10.8659
2023-03-29T09:59:38.017Z,10.9259
2023-03-29T10:00:38.141Z,11.3518
2023-03-29T10:01:38.794Z,11.4724
2023-03-29T10:02:39.302Z,11.7767
2023-03-29T10:03:39.529Z,11.7251
2023-03-29T10:04:39.994Z,11.3759
2023-03-29T10:05:40.122Z,11.5900
2023-03-29T10:06:40.214Z,11.6489
2023-03-29T10:07:40.434Z,11.4988
2023-03-29T10:08:41.838Z,11.5157
2023-03-29T10:09:42.152Z,11.8033
2023-03-29T10:10:42.567Z,11.5827
2023-03-29T10:11:42.893Z,11.7049
2023-03-29T10:12:43.265Z,12.1188
2023-03-29T10:13:43.366Z,11.9160
2023-03-29T10:14:43.532Z,12.0118
2023-03-29T10:15:44.550Z,12.4292
2023-03-29T10:16:44.775Z,12.6736
2023-03-29T10:17:45.143Z,12.0585
2023-03-29T10:18:45.370Z,12.0640
2023-03-29T10:19:45.650Z,12.1991
2023-03-29T10:20:45.854Z,12.2275
2023-03-29T10:21:46.156Z,12.4345
2023-03-29T10:22:46.300Z,13.0711
2023-03-29T10:23:46.763Z,12.7967
2023-03-29T10:24:46.862Z,12.7210
2023-03-29T10:25:47.135Z,12.8494
2023-03-29T10:26:47.320Z,12.7615
2023-03-29T10:27:47.827Z,12.6397
2023-03-29T10:28:48.049Z,12.4290
2023-03-29T10:29:48.413Z,12.5264
2023-03-29T10:30:48.690Z,12.7208
2023-03-29T10:31:49.257Z,12.7506
2023-03-29T10:32:49.804Z,12.8355
2023-03-29T10:33:50.038Z,12.8813
2023-03-29T10:34:50.515Z,13.0632
2023-03-29T10:35:50.738Z,13.2130
2023-03-29T10:36:51.103Z,13.2907
2023-03-29T10:37:51.581Z,13.4505
2023-03-29T10:38:52.004Z,14.4476
2023-03-29T10:39:52.292Z,14.5349
2023-03-29T10:40:52.723Z,14.0340
2023-03-29T10:41:53.114Z,14.5437
2023-03-29T10:42:53.226Z,15.2043
2023-03-29T10:43:54.376Z,15.1553
2023-03-29T10:44:54.835Z,13.6458
2023-03-29T10:45:55.522Z,13.3571
2023-03-29T10:46:56.782Z,13.1039
2023-03-29T10:47:57.117Z,13.5754
2023-03-29T10:48:57.520Z,13.4620
2023-03-29T10:49:58.652Z,13.2380
2023-03-29T10:50:59.032Z,13.7062
2023-03-29T10:51:59.219Z,15.3993
2023-03-29T10:52:59.806Z,15.2746
2023-03-29T10:54:00.048Z,14.1247
2023-03-29T10:55:00.563Z,13.7348
2023-03-29T10:56:00.757Z,13.1686
2023-03-29T10:57:01.139Z,12.8269
2023-03-29T10:58:01.588Z,12.7966
2023-03-29T10:59:01.811Z,13.2094
2023-03-29T11:00:02.265Z,13.0074
2023-03-29T11:01:02.778Z,12.7637
2023-03-29T11:02:03.539Z,12.7186
2023-03-29T11:03:04.236Z,12.6275
2023-03-29T11:04:05.488Z,12.6998
2023-03-29T11:05:06.067Z,12.5643
2023-03-29T11:06:06.441Z,12.5627
2023-03-29T11:07:06.858Z,12.6442
2023-03-29T11:08:07.086Z,12.7480
2023-03-29T11:09:07.440Z,12.7251
2023-03-29T11:10:07.870Z,12.7205
2023-03-29T11:11:08.348Z,13.0181
2023-03-29T11:12:15.583Z,13.3718
2023-03-29T11:13:09.668Z,13.7807
2023-03-29T11:14:10.476Z,13.9080
2023-03-29T11:15:10.662Z,14.1428
2023-03-29T11:16:11.089Z,14.3445
2023-03-29T11:17:11.330Z,14.0654
2023-03-29T11:18:11.722Z,14.0531
2023-03-29T11:19:12.106Z,14.1417
2023-03-29T11:20:12.530Z,14.1290
2023-03-29T11:21:12.928Z,14.3412
2023-03-29T11:22:13.101Z,14.5616
2023-03-29T11:23:13.506Z,14.5947
2023-03-29T11:24:13.708Z,14.6141
2023-03-29T11:25:14.124Z,14.6396
2023-03-29T11:26:14.490Z,14.9580
2023-03-29T11:27:14.704Z,14.7609
2023-03-29T11:28:15.133Z,14.8325
2023-03-29T11:29:15.289Z,15.1293
2023-03-29T11:30:15.950Z,15.8150
2023-03-29T11:31:16.793Z,15.8174
2023-03-29T11:32:17.112Z,15.9837
2023-03-29T11:33:18.039Z,16.1030
2023-03-29T11:34:18.301Z,16.0950
2023-03-29T11:35:18.678Z,15.8614
2023-03-29T11:36:19.200Z,16.3333
2023-03-29T11:37:19.416Z,16.8904
2023-03-29T11:38:19.940Z,16.8808
2023-03-29T11:39:20.404Z,16.4802
2023-03-29T11:40:20.691Z,16.3323
2023-03-29T11:41:21.109Z,17.0345
2023-03-29T11:42:21.317Z,16.7854
2023-03-29T11:43:21.629Z,16.9874
2023-03-29T11:44:22.008Z,16.7193
2023-03-29T11:45:22.255Z,17.2154
2023-03-29T11:46:22.847Z,17.8048
2023-03-29T11:47:23.511Z,17.2273
2023-03-29T11:48:24.112Z,16.2498
2023-03-29T11:49:24.546Z,16.0768
2023-03-29T11:50:25.975Z,16.0564
2023-03-29T11:51:26.154Z,16.7764
2023-03-29T11:52:26.509Z,17.3651
2023-03-29T11:53:26.769Z,17.2822
2023-03-29T11:54:27.164Z,16.8969
2023-03-29T11:55:27.979Z,17.1476
2023-03-29T11:56:28.253Z,16.4969
2023-03-29T11:57:28.809Z,15.9673
2023-03-29T11:58:29.373Z,15.7879
2023-03-29T11:59:29.667Z,15.5727
2023-03-29T12:00:30.039Z,15.8860
2023-03-29T12:01:30.484Z,15.9082
2023-03-29T12:02:31.249Z,15.6629
2023-03-29T12:03:31.911Z,15.3178
2023-03-29T12:04:33.120Z,15.3103
2023-03-29T12:05:33.531Z,15.5587
2023-03-29T12:06:33.786Z,15.8630
2023-03-29T12:07:34.205Z,16.4359
2023-03-29T12:08:34.539Z,16.3219
2023-03-29T12:09:34.731Z,15.7048
2023-03-29T12:10:35.177Z,15.5510
2023-03-29T12:11:35.352Z,15.4594
2023-03-29T12:12:36.280Z,15.2787
2023-03-29T12:13:36.669Z,15.3734
2023-03-29T12:14:37.348Z,15.1749
2023-03-29T12:15:37.791Z,14.9362
2023-03-29T12:16:38.104Z,14.9774
2023-03-29T12:17:38.739Z,15.0490
2023-03-29T12:18:39.691Z,14.8225
2023-03-29T12:19:42.658Z,14.6349
2023-03-29T12:20:41.183Z,14.6734
2023-03-29T12:21:42.065Z,14.6856
2023-03-29T12:22:42.531Z,14.7492
2023-03-29T12:23:42.711Z,14.6459
2023-03-29T12:24:43.064Z,14.5085
2023-03-29T12:25:43.669Z,14.5997
2023-03-29T12:26:43.927Z,14.5556
2023-03-29T12:27:44.286Z,14.5455
2023-03-29T12:28:44.651Z,14.2842
2023-03-29T12:29:44.954Z,14.2198
2023-03-29T12:30:45.358Z,14.2231
2023-03-29T12:31:45.868Z,14.4290
2023-03-29T12:32:46.473Z,14.6767
2023-03-29T12:33:46.883Z,14.8215
2023-03-29T12:34:47.226Z,14.8806
2023-03-29T12:35:47.535Z,14.9428
2023-03-29T12:36:47.902Z,14.6282
2023-03-29T12:37:48.140Z,14.6374
2023-03-29T12:38:48.486Z,14.5545
2023-03-29T12:39:48.898Z,14.5277
2023-03-29T12:40:49.260Z,14.2065
2023-03-29T12:41:49.584Z,14.4909
2023-03-29T12:42:49.858Z,15.1927
2023-03-29T12:43:50.317Z,15.5694
2023-03-29T12:44:50.866Z,15.4856
2023-03-29T12:45:51.187Z,15.4079
2023-03-29T12:46:52.293Z,15.4028
2023-03-29T12:47:52.763Z,15.0271
2023-03-29T12:48:53.207Z,15.6305
2023-03-29T12:49:53.825Z,16.1684
2023-03-29T12:50:54.051Z,16.9582
2023-03-29T12:51:54.454Z,16.8013
2023-03-29T12:52:54.923Z,15.7442
2023-03-29T12:53:55.115Z,16.0115
2023-03-29T12:54:55.465Z,16.1278
2023-03-29T12:55:55.921Z,15.7310
2023-03-29T12:56:56.685Z,15.1986
2023-03-29T12:57:57.024Z,14.6758
2023-03-29T12:58:57.241Z,14.2798
2023-03-29T12:59:57.662Z,14.5446
2023-03-29T13:00:58.210Z,14.8391
2023-03-29T13:01:58.917Z,14.1890
2023-03-29T13:02:59.540Z,14.3373
2023-03-29T13:04:00.268Z,14.3973
2023-03-29T13:05:00.815Z,14.2064
2023-03-29T13:06:01.847Z,14.0965
2023-03-29T13:07:01.793Z,14.4156
2023-03-29T13:08:02.223Z,14.1617
2023-03-29T13:09:02.768Z,14.5136
2023-03-29T13:10:03.330Z,14.5598
2023-03-29T13:11:03.976Z,15.0401
2023-03-29T13:12:04.454Z,15.3505
2023-03-29T13:13:04.962Z,15.4781
2023-03-29T13:14:05.302Z,14.9056
2023-03-29T13:15:05.745Z,15.7662
2023-03-29T13:16:06.497Z,16.5961
2023-03-29T13:17:17.748Z,16.6601